Miltiadis Junior — D5FV2 — position and weather

sailwx.info

Track history (hours):
 
Tides and Currents Weather Stations Pressure Air Temp Water Temp Dewpoint Dewpoint Depression Visibility Wind Speed Wind Dir Waves Ship Positions

Miltiadis Junior

Last reported at 2017-Nov-08 23:58 UTC. Time now 2017-Nov-19 12:29 UTC.
Position N 01°16' E 104°04'.
Warning: this ship's position is 10 days out of date.

Length 333 m; draft 20.4 m.

Type: Tanker. MMSI: 636016370.

Date/timePositionNaut miles runAvg speedWind from/ knotsBaromVisibWave heightAir tempDewpointWater temp
2017-Nov-08 23:58N 01°16' E 104°04'3 6.4
2017-Nov-08 23:30N 01°17' E 104°02'0 0.1
2017-Nov-08 17:12N 01°17' E 104°01'0 0.0
2017-Nov-08 16:15N 01°17' E 104°01'0 0.3
2017-Nov-08 15:24N 01°17' E 104°02'0 0.3
2017-Nov-08 14:48N 01°17' E 104°02'0 0.0
2017-Nov-08 14:18N 01°17' E 104°02'0 0.0
2017-Nov-08 13:48N 01°17' E 104°02'0 0.0
2017-Nov-08 13:27N 01°17' E 104°02'0 0.0
2017-Nov-08 13:00N 01°17' E 104°02'0 0.0
2017-Nov-08 12:30N 01°17' E 104°02'0 0.0
2017-Nov-08 12:00N 01°17' E 104°02'0 0.0
2017-Nov-08 11:30N 01°17' E 104°02'0 0.0
2017-Nov-08 11:00N 01°17' E 104°02'0 0.0
2017-Nov-08 06:36N 01°17' E 104°02'0 0.1
2017-Nov-08 02:30N 01°17' E 104°01'0 0.0
2017-Nov-08 01:48N 01°17' E 104°01'0 0.2
2017-Nov-08 01:21N 01°17' E 104°01'0 0.3
2017-Nov-08 00:57N 01°17' E 104°01'1 1.4
2017-Nov-08 00:30N 01°17' E 104°02'2 4.0
2017-Nov-08 00:00N 01°17' E 104°04'3 6.0
2017-Nov-07 23:30N 01°17' E 104°07'4 2.8
2017-Nov-07 22:07N 01°15' E 104°03'1 7.9
2017-Nov-07 21:58N 01°15' E 104°02'5 9.7
2017-Nov-07 21:30N 01°14' E 103°58'510.0
2017-Nov-07 21:00N 01°12' E 103°53'4 8.3
2017-Nov-07 20:30N 01°11' E 103°49'4 7.1
2017-Nov-07 20:00N 01°09' E 103°46'4 8.2
2017-Nov-07 19:31N 01°06' E 103°44'4 7.3
2017-Nov-07 18:59N 01°04' E 103°40'4 8.1
2017-Nov-07 18:30N 01°05' E 103°36'713.3
2017-Nov-07 17:59N 01°08' E 103°30'713.8
2017-Nov-07 17:30N 01°11' E 103°24'713.9
2017-Nov-07 16:59N 01°16' E 103°19'  
Track history (hours):
 
Tides and Currents Weather Stations Pressure Air Temp Water Temp Dewpoint Dewpoint Depression Visibility Wind Speed Wind Dir Waves Ship Positions

Miltiadis Junior

Last reported at 2017-Nov-08 23:58 UTC. Time now 2017-Nov-19 12:29 UTC.
Position N 01°16' E 104°04'.
Warning: this ship's position is 10 days out of date.

Length 333 m; draft 20.4 m.

Type: Tanker. MMSI: 636016370.

Date/timePositionNaut miles runAvg speedWind from/ knotsBaromVisibWave heightAir tempDewpointWater temp
2017-Nov-08 23:58N 01°16' E 104°04'3 6.4
2017-Nov-08 23:30N 01°17' E 104°02'0 0.1
2017-Nov-08 17:12N 01°17' E 104°01'0 0.0
2017-Nov-08 16:15N 01°17' E 104°01'0 0.3
2017-Nov-08 15:24N 01°17' E 104°02'0 0.3
2017-Nov-08 14:48N 01°17' E 104°02'0 0.0
2017-Nov-08 14:18N 01°17' E 104°02'0 0.0
2017-Nov-08 13:48N 01°17' E 104°02'0 0.0
2017-Nov-08 13:27N 01°17' E 104°02'0 0.0
2017-Nov-08 13:00N 01°17' E 104°02'0 0.0
2017-Nov-08 12:30N 01°17' E 104°02'0 0.0
2017-Nov-08 12:00N 01°17' E 104°02'0 0.0
2017-Nov-08 11:30N 01°17' E 104°02'0 0.0
2017-Nov-08 11:00N 01°17' E 104°02'0 0.0
2017-Nov-08 06:36N 01°17' E 104°02'0 0.1
2017-Nov-08 02:30N 01°17' E 104°01'0 0.0
2017-Nov-08 01:48N 01°17' E 104°01'0 0.2
2017-Nov-08 01:21N 01°17' E 104°01'0 0.3
2017-Nov-08 00:57N 01°17' E 104°01'1 1.4
2017-Nov-08 00:30N 01°17' E 104°02'2 4.0
2017-Nov-08 00:00N 01°17' E 104°04'3 6.0
2017-Nov-07 23:30N 01°17' E 104°07'4 2.8
2017-Nov-07 22:07N 01°15' E 104°03'1 7.9
2017-Nov-07 21:58N 01°15' E 104°02'5 9.7
2017-Nov-07 21:30N 01°14' E 103°58'510.0
2017-Nov-07 21:00N 01°12' E 103°53'4 8.3
2017-Nov-07 20:30N 01°11' E 103°49'4 7.1
2017-Nov-07 20:00N 01°09' E 103°46'4 8.2
2017-Nov-07 19:31N 01°06' E 103°44'4 7.3
2017-Nov-07 18:59N 01°04' E 103°40'4 8.1
2017-Nov-07 18:30N 01°05' E 103°36'713.3
2017-Nov-07 17:59N 01°08' E 103°30'713.8
2017-Nov-07 17:30N 01°11' E 103°24'713.9
2017-Nov-07 16:59N 01°16' E 103°19'  

Dump ship's entire track history